createdAt,value
2019-05-29T00:00:59.323Z,0
2019-05-29T00:01:58.951Z,0
2019-05-29T00:02:58.920Z,0
2019-05-29T00:03:59.753Z,0
2019-05-29T00:04:58.894Z,0
2019-05-29T00:05:59.009Z,0
2019-05-29T00:06:58.935Z,0
2019-05-29T00:07:58.981Z,0
2019-05-29T00:08:59.022Z,0
2019-05-29T00:09:59.301Z,0
2019-05-29T00:10:58.891Z,0
2019-05-29T00:11:58.942Z,0
2019-05-29T00:12:58.862Z,0
2019-05-29T00:13:58.901Z,0
2019-05-29T00:14:58.922Z,0
2019-05-29T00:15:59.251Z,0
2019-05-29T00:16:58.869Z,0
2019-05-29T00:17:59.264Z,0
2019-05-29T00:19:03.798Z,0
2019-05-29T00:19:58.931Z,0
2019-05-29T00:20:58.943Z,0
2019-05-29T00:21:59.213Z,0
2019-05-29T00:22:58.973Z,0
2019-05-29T00:23:58.967Z,0
2019-05-29T00:24:58.927Z,0
2019-05-29T00:25:58.954Z,0
2019-05-29T00:26:58.983Z,0
2019-05-29T00:27:59.213Z,0
2019-05-29T00:28:59.017Z,0
2019-05-29T00:29:59.264Z,0
2019-05-29T00:30:58.967Z,0
2019-05-29T00:31:59.182Z,0
2019-05-29T00:32:58.979Z,0
2019-05-29T00:33:59.260Z,0
2019-05-29T00:34:58.986Z,0
2019-05-29T00:35:58.953Z,0
2019-05-29T00:36:58.988Z,0
2019-05-29T00:37:58.944Z,0
2019-05-29T00:38:58.978Z,0
2019-05-29T00:39:59.390Z,0
2019-05-29T00:40:58.947Z,0
2019-05-29T00:41:58.956Z,0
2019-05-29T00:42:58.999Z,0
2019-05-29T00:43:58.993Z,0
2019-05-29T00:45:00.204Z,0
2019-05-29T00:45:59.207Z,0
2019-05-29T00:46:59.033Z,0
2019-05-29T00:48:00.028Z,0
2019-05-29T00:48:59.121Z,0
2019-05-29T00:49:59.007Z,0
2019-05-29T00:50:58.948Z,0
2019-05-29T00:51:59.372Z,0
2019-05-29T00:52:58.966Z,0
2019-05-29T00:53:58.912Z,0
2019-05-29T00:54:59.166Z,0
2019-05-29T00:55:59.460Z,0
2019-05-29T00:56:58.972Z,0
2019-05-29T00:57:59.314Z,0
2019-05-29T00:58:58.970Z,0
2019-05-29T00:59:58.972Z,0
2019-05-29T01:00:58.982Z,0
2019-05-29T01:01:58.959Z,0
2019-05-29T01:02:59.477Z,0
2019-05-29T01:03:59.218Z,0
2019-05-29T01:04:59.020Z,0
2019-05-29T01:05:58.986Z,0
2019-05-29T01:06:59.052Z,0
2019-05-29T01:07:59.030Z,0
2019-05-29T01:08:59.368Z,0
2019-05-29T01:09:59.055Z,0
2019-05-29T01:10:59.031Z,0
2019-05-29T01:11:58.990Z,0
2019-05-29T01:12:59.228Z,0
2019-05-29T01:13:59.097Z,0
2019-05-29T01:15:01.085Z,0
2019-05-29T01:15:59.315Z,0
2019-05-29T01:16:59.017Z,0
2019-05-29T01:17:59.281Z,0
2019-05-29T01:18:59.130Z,0
2019-05-29T01:19:58.996Z,0
2019-05-29T01:20:59.001Z,0
2019-05-29T01:21:59.328Z,0
2019-05-29T01:22:59.118Z,0
2019-05-29T01:23:59.034Z,0
2019-05-29T01:24:59.047Z,0
2019-05-29T01:25:59.080Z,0
2019-05-29T01:26:59.110Z,0
2019-05-29T01:27:59.082Z,0
2019-05-29T01:28:59.016Z,0
2019-05-29T01:29:59.075Z,0
2019-05-29T01:31:02.009Z,0
2019-05-29T01:31:59.047Z,0
2019-05-29T01:32:59.073Z,0
2019-05-29T01:33:59.018Z,0
2019-05-29T01:34:59.107Z,0
2019-05-29T01:35:59.977Z,0
2019-05-29T01:36:59.036Z,0
2019-05-29T01:37:59.296Z,0
2019-05-29T01:38:59.012Z,0
2019-05-29T01:39:59.328Z,0
2019-05-29T01:40:59.001Z,0
2019-05-29T01:42:00.280Z,0
2019-05-29T01:43:00.578Z,0
2019-05-29T01:43:59.088Z,0
2019-05-29T01:45:15.385Z,0
2019-05-29T01:45:59.435Z,0
2019-05-29T01:46:59.022Z,0
2019-05-29T01:47:59.012Z,0
2019-05-29T01:48:59.165Z,0
2019-05-29T01:49:59.043Z,0
2019-05-29T01:50:59.048Z,0
2019-05-29T01:51:59.374Z,0
2019-05-29T01:52:59.064Z,0
2019-05-29T01:53:59.005Z,0
2019-05-29T01:54:59.043Z,0
2019-05-29T01:55:59.086Z,0
2019-05-29T01:56:59.090Z,0
2019-05-29T01:57:59.018Z,0
2019-05-29T01:58:59.100Z,0
2019-05-29T01:59:59.048Z,0
2019-05-29T02:00:59.124Z,0
2019-05-29T02:01:59.043Z,0
2019-05-29T02:02:59.096Z,0
2019-05-29T02:03:59.774Z,0
2019-05-29T02:04:59.063Z,0
2019-05-29T02:05:59.046Z,0
2019-05-29T02:06:59.095Z,0
2019-05-29T02:07:59.205Z,0
2019-05-29T02:08:59.087Z,0
2019-05-29T02:09:59.365Z,0
2019-05-29T02:10:59.056Z,0
2019-05-29T02:11:59.084Z,0
2019-05-29T02:12:59.177Z,0
2019-05-29T02:13:59.122Z,0
2019-05-29T02:14:59.080Z,0
2019-05-29T02:15:59.440Z,0
2019-05-29T02:16:59.102Z,0
2019-05-29T02:17:59.045Z,0
2019-05-29T02:18:59.129Z,0
2019-05-29T02:19:59.131Z,0
2019-05-29T02:20:59.135Z,0
2019-05-29T02:21:59.496Z,0
2019-05-29T02:22:59.098Z,0
2019-05-29T02:23:59.122Z,0
2019-05-29T02:24:59.109Z,0
2019-05-29T02:25:59.131Z,0
2019-05-29T02:26:59.097Z,0
2019-05-29T02:27:59.473Z,0
2019-05-29T02:28:59.158Z,0
2019-05-29T02:29:59.092Z,0
2019-05-29T02:30:59.156Z,0
2019-05-29T02:31:59.090Z,0
2019-05-29T02:32:59.164Z,0
2019-05-29T02:33:59.497Z,0
2019-05-29T02:34:59.131Z,0
2019-05-29T02:35:59.113Z,0
2019-05-29T02:36:59.101Z,0
2019-05-29T02:37:59.166Z,0
2019-05-29T02:38:59.545Z,0
2019-05-29T02:39:59.120Z,0
2019-05-29T02:40:59.086Z,0
2019-05-29T02:41:59.112Z,0
2019-05-29T02:42:59.250Z,0
2019-05-29T02:43:59.145Z,0
2019-05-29T02:44:59.509Z,0
2019-05-29T02:46:05.141Z,0
2019-05-29T02:46:59.147Z,0
2019-05-29T02:47:59.089Z,0
2019-05-29T02:48:59.199Z,0
2019-05-29T02:49:59.123Z,0
2019-05-29T02:50:59.457Z,0
2019-05-29T02:51:59.123Z,0
2019-05-29T02:52:59.190Z,0
2019-05-29T02:53:59.314Z,0
2019-05-29T02:54:59.166Z,0
2019-05-29T02:55:59.165Z,0
2019-05-29T02:56:59.418Z,0
2019-05-29T02:57:59.122Z,0
2019-05-29T02:58:59.191Z,0
2019-05-29T02:59:59.126Z,0
2019-05-29T03:00:59.213Z,0
2019-05-29T03:01:59.195Z,0
2019-05-29T03:02:59.473Z,0
2019-05-29T03:03:59.263Z,0
2019-05-29T03:04:59.187Z,0
2019-05-29T03:05:59.131Z,0
2019-05-29T03:06:59.177Z,0
2019-05-29T03:07:59.403Z,0
2019-05-29T03:08:59.536Z,0
2019-05-29T03:09:59.223Z,0
2019-05-29T03:10:59.158Z,0
2019-05-29T03:12:02.800Z,0
2019-05-29T03:12:59.242Z,0
2019-05-29T03:13:59.255Z,0
2019-05-29T03:14:59.254Z,0
2019-05-29T03:16:21.005Z,0
2019-05-29T03:16:59.243Z,0
2019-05-29T03:17:59.231Z,0
2019-05-29T03:18:59.187Z,0
2019-05-29T03:19:59.140Z,0
2019-05-29T03:20:59.524Z,0
2019-05-29T03:21:59.386Z,0
2019-05-29T03:22:59.231Z,0
2019-05-29T03:23:59.169Z,0
2019-05-29T03:24:59.317Z,0
2019-05-29T03:25:59.336Z,0
2019-05-29T03:26:59.495Z,0
2019-05-29T03:27:59.175Z,0
2019-05-29T03:28:59.167Z,0
2019-05-29T03:29:59.165Z,0
2019-05-29T03:30:59.213Z,0
2019-05-29T03:31:59.494Z,0
2019-05-29T03:32:59.905Z,0
2019-05-29T03:34:01.447Z,0
2019-05-29T03:34:59.351Z,0
2019-05-29T03:35:59.441Z,0
2019-05-29T03:36:59.816Z,0
2019-05-29T03:38:01.711Z,0
2019-05-29T03:38:59.561Z,0
2019-05-29T03:39:59.222Z,0
2019-05-29T03:40:59.496Z,0
2019-05-29T03:41:59.222Z,0
2019-05-29T03:42:59.228Z,0
2019-05-29T03:43:59.289Z,0
2019-05-29T03:44:59.245Z,0
2019-05-29T03:45:59.241Z,0
2019-05-29T03:46:59.432Z,0
2019-05-29T03:47:59.182Z,0
2019-05-29T03:48:59.247Z,0
2019-05-29T03:49:59.253Z,0
2019-05-29T03:50:59.684Z,0
2019-05-29T03:51:59.266Z,0
2019-05-29T03:52:59.232Z,0
2019-05-29T03:53:59.330Z,0
2019-05-29T03:54:59.266Z,0
2019-05-29T03:55:59.257Z,0
2019-05-29T03:56:59.566Z,0
2019-05-29T03:57:59.323Z,0
2019-05-29T03:58:59.887Z,0
2019-05-29T03:59:59.831Z,0
2019-05-29T04:01:00.119Z,0
2019-05-29T04:01:59.253Z,0
2019-05-29T04:02:59.513Z,0
2019-05-29T04:03:59.422Z,0
2019-05-29T04:04:59.345Z,0
2019-05-29T04:05:59.287Z,0
2019-05-29T04:06:59.382Z,0
2019-05-29T04:08:00.084Z,0
2019-05-29T04:08:59.776Z,0
2019-05-29T04:09:59.289Z,0
2019-05-29T04:10:59.261Z,0
2019-05-29T04:11:59.271Z,0
2019-05-29T04:12:59.373Z,0
2019-05-29T04:13:59.296Z,0
2019-05-29T04:14:59.662Z,0
2019-05-29T04:15:59.411Z,0
2019-05-29T04:17:09.655Z,0
2019-05-29T04:17:59.282Z,0
2019-05-29T04:18:59.292Z,0
2019-05-29T04:19:59.260Z,0
2019-05-29T04:20:59.680Z,0
2019-05-29T04:21:59.437Z,0
2019-05-29T04:22:59.346Z,0
2019-05-29T04:23:59.345Z,0
2019-05-29T04:24:59.383Z,0
2019-05-29T04:25:59.332Z,0
2019-05-29T04:26:59.675Z,0
2019-05-29T04:27:59.454Z,0
2019-05-29T04:28:59.354Z,0
2019-05-29T04:29:59.347Z,0
2019-05-29T04:30:59.310Z,0
2019-05-29T04:31:59.297Z,0
2019-05-29T04:32:59.712Z,0
2019-05-29T04:33:59.830Z,0
2019-05-29T04:34:59.697Z,0
2019-05-29T04:35:59.381Z,0
2019-05-29T04:36:59.526Z,0
2019-05-29T04:37:59.342Z,0
2019-05-29T04:38:59.810Z,0
2019-05-29T04:39:59.727Z,0
2019-05-29T04:40:59.404Z,0
2019-05-29T04:41:59.758Z,0
2019-05-29T04:42:59.688Z,0
2019-05-29T04:44:02.397Z,0
2019-05-29T04:44:59.760Z,0
2019-05-29T04:45:59.582Z,0
2019-05-29T04:47:17.999Z,0
2019-05-29T04:47:59.356Z,0
2019-05-29T04:48:59.641Z,0
2019-05-29T04:49:59.772Z,0
2019-05-29T04:50:59.819Z,0
2019-05-29T04:51:59.418Z,0
2019-05-29T04:52:59.546Z,5
2019-05-29T04:53:59.494Z,5
2019-05-29T04:54:59.301Z,5
2019-05-29T04:55:59.527Z,5
2019-05-29T04:56:59.951Z,5
2019-05-29T04:58:01.653Z,5
2019-05-29T04:58:59.660Z,5
2019-05-29T04:59:59.570Z,5
2019-05-29T05:01:09.200Z,5
2019-05-29T05:01:59.670Z,5
2019-05-29T05:02:59.432Z,5
2019-05-29T05:04:04.267Z,5
2019-05-29T05:04:59.523Z,5
2019-05-29T05:05:59.356Z,5
2019-05-29T05:06:59.355Z,5
2019-05-29T05:07:59.383Z,5
2019-05-29T05:08:59.736Z,5
2019-05-29T05:09:59.394Z,5
2019-05-29T05:10:59.349Z,5
2019-05-29T05:11:59.387Z,5
2019-05-29T05:12:59.602Z,5
2019-05-29T05:14:01.544Z,5
2019-05-29T05:14:59.784Z,5
2019-05-29T05:15:59.499Z,5
2019-05-29T05:16:59.381Z,5
2019-05-29T05:17:59.347Z,5
2019-05-29T05:19:00.018Z,5
2019-05-29T05:19:59.361Z,10
2019-05-29T05:20:59.763Z,10
2019-05-29T05:21:59.461Z,10
2019-05-29T05:22:59.482Z,10
2019-05-29T05:23:59.655Z,10
2019-05-29T05:24:59.526Z,10
2019-05-29T05:25:59.342Z,10
2019-05-29T05:26:59.757Z,10
2019-05-29T05:27:59.374Z,10
2019-05-29T05:28:59.712Z,10
2019-05-29T05:29:59.430Z,10
2019-05-29T05:30:59.497Z,10
2019-05-29T05:31:59.445Z,10
2019-05-29T05:32:59.752Z,10
2019-05-29T05:34:03.247Z,10
2019-05-29T05:34:59.387Z,10
2019-05-29T05:35:59.374Z,10
2019-05-29T05:36:59.384Z,10
2019-05-29T05:37:59.426Z,10
2019-05-29T05:38:59.664Z,10
2019-05-29T05:39:59.444Z,15
2019-05-29T05:40:59.389Z,15
2019-05-29T05:41:59.378Z,15
2019-05-29T05:42:59.415Z,15
2019-05-29T05:43:59.461Z,15
2019-05-29T05:44:59.494Z,20
2019-05-29T05:45:59.387Z,15
2019-05-29T05:46:59.551Z,15
2019-05-29T05:48:07.958Z,15
2019-05-29T05:48:59.375Z,20
2019-05-29T05:49:59.424Z,20
2019-05-29T05:50:59.635Z,20
2019-05-29T05:51:59.439Z,15
2019-05-29T05:52:59.481Z,15
2019-05-29T05:53:59.449Z,15
2019-05-29T05:54:59.436Z,25
2019-05-29T05:55:59.448Z,25
2019-05-29T05:57:01.863Z,25
2019-05-29T05:57:59.416Z,25
2019-05-29T05:58:59.430Z,25
2019-05-29T05:59:59.369Z,25
2019-05-29T06:00:59.462Z,20
2019-05-29T06:01:59.462Z,20
2019-05-29T06:03:03.247Z,20
2019-05-29T06:04:10.194Z,20
2019-05-29T06:04:59.457Z,20
2019-05-29T06:05:59.890Z,20
2019-05-29T06:06:59.489Z,20
2019-05-29T06:07:59.413Z,20
2019-05-29T06:08:59.500Z,20
2019-05-29T06:09:59.449Z,20
2019-05-29T06:11:01.650Z,20
2019-05-29T06:12:00.119Z,20
2019-05-29T06:12:59.466Z,15
2019-05-29T06:13:59.440Z,15
2019-05-29T06:14:59.439Z,15
2019-05-29T06:15:59.510Z,15
2019-05-29T06:16:59.472Z,15
2019-05-29T06:18:29.317Z,15
2019-05-29T06:18:59.673Z,15
2019-05-29T06:19:59.557Z,15
2019-05-29T06:20:59.848Z,15
2019-05-29T06:21:59.448Z,15
2019-05-29T06:22:59.537Z,10
2019-05-29T06:23:59.619Z,15
2019-05-29T06:24:59.633Z,15
2019-05-29T06:26:02.774Z,10
2019-05-29T06:26:59.767Z,10
2019-05-29T06:27:59.649Z,10
2019-05-29T06:28:59.717Z,5
2019-05-29T06:29:59.437Z,5
2019-05-29T06:30:59.505Z,5
2019-05-29T06:31:59.454Z,5
2019-05-29T06:32:59.953Z,5
2019-05-29T06:34:10.800Z,10
2019-05-29T06:34:59.567Z,10
2019-05-29T06:35:59.546Z,10
2019-05-29T06:37:00.149Z,10
2019-05-29T06:37:59.459Z,10
2019-05-29T06:38:59.789Z,15
2019-05-29T06:39:59.452Z,15
2019-05-29T06:40:59.496Z,10
2019-05-29T06:41:59.507Z,10
2019-05-29T06:42:59.514Z,15
2019-05-29T06:43:59.664Z,15
2019-05-29T06:45:01.839Z,10
2019-05-29T06:45:59.486Z,10
2019-05-29T06:46:59.720Z,10
2019-05-29T06:47:59.570Z,10
2019-05-29T06:49:09.746Z,15
2019-05-29T06:49:59.541Z,10
2019-05-29T06:51:03.105Z,10
2019-05-29T06:51:59.591Z,10
2019-05-29T06:52:59.471Z,10
2019-05-29T06:53:59.589Z,15
2019-05-29T06:54:59.607Z,15
2019-05-29T06:56:08.305Z,15
2019-05-29T06:56:59.851Z,10
2019-05-29T06:57:59.669Z,10
2019-05-29T06:58:59.538Z,15
2019-05-29T06:59:59.517Z,10
2019-05-29T07:00:59.566Z,15
2019-05-29T07:01:59.680Z,15
2019-05-29T07:02:59.971Z,15
2019-05-29T07:04:17.654Z,15
2019-05-29T07:04:59.541Z,15
2019-05-29T07:06:03.074Z,15
2019-05-29T07:06:59.547Z,10
2019-05-29T07:08:13.255Z,10
2019-05-29T07:09:01.161Z,10
2019-05-29T07:09:59.512Z,10
2019-05-29T07:10:59.638Z,10
2019-05-29T07:11:59.565Z,15
2019-05-29T07:12:59.668Z,20
2019-05-29T07:14:01.157Z,20
2019-05-29T07:14:59.858Z,20
2019-05-29T07:15:59.609Z,25
2019-05-29T07:17:06.502Z,25
2019-05-29T07:17:59.645Z,25
2019-05-29T07:20:08.462Z,25
2019-05-29T07:20:19.502Z,25
2019-05-29T07:21:19.825Z,25
2019-05-29T07:22:19.477Z,25
2019-05-29T07:23:19.497Z,25
2019-05-29T07:24:19.492Z,25
2019-05-29T07:25:19.451Z,30
2019-05-29T07:26:19.541Z,30
2019-05-29T07:27:24.141Z,30
2019-05-29T07:28:19.489Z,30
2019-05-29T07:29:19.547Z,30
2019-05-29T07:30:19.508Z,25
2019-05-29T07:31:19.572Z,25
2019-05-29T07:32:19.475Z,20
2019-05-29T07:33:20.060Z,20
2019-05-29T07:34:19.614Z,20
2019-05-29T07:35:19.540Z,20
2019-05-29T07:36:19.486Z,20
2019-05-29T07:37:19.558Z,20
2019-05-29T07:38:19.483Z,20
2019-05-29T07:39:19.754Z,25
2019-05-29T07:40:19.495Z,25
2019-05-29T07:41:19.615Z,25
2019-05-29T07:42:19.542Z,25
2019-05-29T07:43:19.599Z,20
2019-05-29T07:44:19.814Z,20
2019-05-29T07:45:19.774Z,20
2019-05-29T07:46:19.575Z,20
2019-05-29T07:47:20.396Z,25
2019-05-29T07:48:19.539Z,30
2019-05-29T07:49:19.537Z,50
2019-05-29T07:50:19.514Z,35
2019-05-29T07:51:19.871Z,25
2019-05-29T07:52:19.474Z,25
2019-05-29T07:53:19.614Z,25
2019-05-29T07:54:19.587Z,25
2019-05-29T07:55:19.580Z,25
2019-05-29T07:56:32.600Z,25
2019-05-29T07:57:19.948Z,25
2019-05-29T07:58:19.776Z,20
2019-05-29T07:59:19.573Z,20
2019-05-29T08:00:19.564Z,20
2019-05-29T08:01:24.224Z,20
2019-05-29T08:02:19.592Z,20
2019-05-29T08:03:19.950Z,20
2019-05-29T08:10:50.268Z,20
2019-05-29T08:11:01.331Z,20
2019-05-29T08:12:01.298Z,20
2019-05-29T08:13:06.077Z,20
2019-05-29T08:14:01.244Z,20
2019-05-29T08:15:01.355Z,20
2019-05-29T08:16:13.097Z,25
2019-05-29T08:17:01.365Z,30
2019-05-29T08:18:01.314Z,35
2019-05-29T08:19:03.454Z,35
2019-05-29T08:20:16.118Z,35
2019-05-29T08:21:01.417Z,35
2019-05-29T08:22:01.635Z,35
2019-05-29T08:23:01.922Z,45
2019-05-29T08:24:01.339Z,40
2019-05-29T08:25:01.674Z,40
2019-05-29T08:26:02.275Z,40
2019-05-29T08:27:02.133Z,45
2019-05-29T08:28:01.611Z,40
2019-05-29T08:29:01.650Z,35
2019-05-29T08:30:01.710Z,35
2019-05-29T08:31:06.583Z,30
2019-05-29T08:32:01.474Z,30
2019-05-29T08:33:02.660Z,30
2019-05-29T08:34:13.208Z,30
2019-05-29T08:35:01.769Z,35
2019-05-29T08:36:10.188Z,35
2019-05-29T08:37:16.914Z,35
2019-05-29T08:38:01.593Z,35
2019-05-29T08:39:02.373Z,30
2019-05-29T08:40:02.449Z,30
2019-05-29T08:41:01.944Z,30
2019-05-29T08:42:31.624Z,30
2019-05-29T08:43:01.876Z,30
2019-05-29T08:44:01.576Z,30
2019-05-29T08:45:03.584Z,30
2019-05-29T08:46:03.416Z,30
2019-05-29T08:47:19.516Z,30
2019-05-29T08:48:02.359Z,30
2019-05-29T08:49:02.877Z,25
2019-05-29T08:50:25.187Z,25
2019-05-29T08:51:02.419Z,25
2019-05-29T08:52:19.425Z,20
2019-05-29T08:53:05.217Z,20
2019-05-29T08:54:20.997Z,20
2019-05-29T08:55:02.896Z,20
2019-05-29T08:56:01.387Z,20
2019-05-29T08:57:01.358Z,15
2019-05-29T08:58:01.766Z,15
2019-05-29T08:59:05.133Z,15
2019-05-29T09:00:01.576Z,15
2019-05-29T09:01:06.499Z,15
2019-05-29T09:02:06.916Z,15
2019-05-29T09:03:01.659Z,15
2019-05-29T09:04:02.221Z,15
2019-05-29T09:05:05.625Z,15
2019-05-29T09:06:21.627Z,20
2019-05-29T09:07:01.639Z,20
2019-05-29T09:08:04.444Z,20
2019-05-29T09:09:04.777Z,20
2019-05-29T09:10:02.102Z,20
2019-05-29T09:11:02.527Z,20
2019-05-29T09:12:02.302Z,20
2019-05-29T09:13:14.395Z,20
2019-05-29T09:14:02.313Z,20
2019-05-29T09:15:01.470Z,20
2019-05-29T09:16:01.704Z,20
2019-05-29T09:17:01.730Z,20
2019-05-29T09:18:01.381Z,20
2019-05-29T09:19:01.402Z,20
2019-05-29T09:20:01.387Z,20
2019-05-29T09:21:17.827Z,20
2019-05-29T09:22:01.751Z,25
2019-05-29T09:23:01.488Z,25
2019-05-29T09:24:03.950Z,25
2019-05-29T09:25:01.439Z,25
2019-05-29T09:26:26.014Z,25
2019-05-29T09:27:01.344Z,25
2019-05-29T09:28:01.666Z,25
2019-05-29T09:29:02.426Z,20
2019-05-29T09:30:01.391Z,20
2019-05-29T09:31:01.500Z,20
2019-05-29T09:32:01.483Z,20
2019-05-29T09:33:03.530Z,20
2019-05-29T09:34:01.518Z,20
2019-05-29T09:35:01.380Z,20
2019-05-29T09:36:01.635Z,20
2019-05-29T09:37:07.824Z,20
2019-05-29T09:38:01.360Z,20
2019-05-29T09:39:01.979Z,20
2019-05-29T09:40:01.664Z,20
2019-05-29T09:41:03.393Z,25
2019-05-29T09:42:01.632Z,25
2019-05-29T09:43:01.392Z,25
2019-05-29T09:44:25.040Z,30
2019-05-29T09:45:01.412Z,30
2019-05-29T09:46:04.813Z,30
2019-05-29T09:47:01.665Z,30
2019-05-29T09:48:01.414Z,30
2019-05-29T09:49:05.958Z,30
2019-05-29T09:50:01.442Z,30
2019-05-29T09:51:18.133Z,30
2019-05-29T09:52:05.077Z,35
2019-05-29T09:53:07.584Z,35
2019-05-29T09:54:07.104Z,35
2019-05-29T09:55:05.241Z,30
2019-05-29T09:56:08.179Z,30
2019-05-29T09:57:06.277Z,30
2019-05-29T09:58:06.532Z,30
2019-05-29T09:59:07.641Z,30
2019-05-29T10:00:06.879Z,25
2019-05-29T10:01:31.862Z,25
2019-05-29T10:02:11.721Z,25
2019-05-29T10:03:06.501Z,25
2019-05-29T10:04:09.026Z,25
2019-05-29T10:05:06.850Z,25
2019-05-29T10:06:04.385Z,25
2019-05-29T10:07:06.807Z,25
2019-05-29T10:08:07.019Z,20
2019-05-29T10:09:06.410Z,25
2019-05-29T10:10:07.847Z,25
2019-05-29T10:11:16.030Z,25
2019-05-29T10:12:11.628Z,25
2019-05-29T10:13:07.015Z,25
2019-05-29T10:14:05.453Z,25
2019-05-29T10:15:06.989Z,25
2019-05-29T10:16:05.538Z,25
2019-05-29T10:17:15.581Z,25
2019-05-29T10:18:08.551Z,30
2019-05-29T10:19:06.089Z,30
2019-05-29T10:20:05.932Z,30
2019-05-29T10:21:07.721Z,30
2019-05-29T10:22:06.992Z,30
2019-05-29T10:23:05.111Z,30
2019-05-29T10:24:06.601Z,30
2019-05-29T10:25:06.309Z,30
2019-05-29T10:26:07.307Z,30
2019-05-29T10:27:06.761Z,30
2019-05-29T10:28:03.727Z,30
2019-05-29T10:29:18.670Z,35
2019-05-29T10:30:03.606Z,35
2019-05-29T10:31:08.851Z,35
2019-05-29T10:32:04.209Z,35
2019-05-29T10:33:03.289Z,35
2019-05-29T10:34:02.837Z,35
2019-05-29T10:35:03.103Z,35
2019-05-29T10:36:09.256Z,35
2019-05-29T10:37:04.981Z,40
2019-05-29T10:38:01.789Z,40
2019-05-29T10:39:01.616Z,45
2019-05-29T10:40:01.544Z,40
2019-05-29T10:41:15.591Z,40
2019-05-29T10:42:01.529Z,40
2019-05-29T10:43:02.173Z,40
2019-05-29T10:44:02.338Z,40
2019-05-29T10:45:01.717Z,35
2019-05-29T10:46:02.632Z,35
2019-05-29T10:47:04.590Z,35
2019-05-29T10:48:02.863Z,35
2019-05-29T10:49:07.478Z,35
2019-05-29T10:50:02.469Z,35
2019-05-29T10:51:04.219Z,35
2019-05-29T10:52:25.145Z,35
2019-05-29T10:53:02.604Z,35
2019-05-29T10:54:07.158Z,35
2019-05-29T10:55:02.806Z,35
2019-05-29T10:56:03.033Z,35
2019-05-29T10:57:03.217Z,35
2019-05-29T10:58:03.031Z,35
2019-05-29T10:59:08.276Z,40
2019-05-29T11:00:02.630Z,40
2019-05-29T11:01:03.417Z,35
2019-05-29T11:02:03.718Z,35
2019-05-29T11:03:05.630Z,35
2019-05-29T11:04:04.295Z,35
2019-05-29T11:05:07.481Z,35
2019-05-29T11:06:02.017Z,35
2019-05-29T11:07:04.827Z,35
2019-05-29T11:08:04.025Z,35
2019-05-29T11:09:03.965Z,35
2019-05-29T11:10:03.988Z,35
2019-05-29T11:11:02.740Z,35
2019-05-29T11:12:05.680Z,35
2019-05-29T11:13:03.309Z,35
2019-05-29T11:14:03.360Z,40
2019-05-29T11:15:17.681Z,40
2019-05-29T11:16:02.650Z,40
2019-05-29T11:17:02.967Z,45
2019-05-29T11:18:03.124Z,45
2019-05-29T11:19:03.018Z,45
2019-05-29T11:20:03.551Z,45
2019-05-29T11:21:02.874Z,50
2019-05-29T11:22:30.442Z,50
2019-05-29T11:23:03.065Z,45
2019-05-29T11:24:03.446Z,45
2019-05-29T11:25:30.307Z,45
2019-05-29T11:26:03.434Z,45
2019-05-29T11:27:04.497Z,45
2019-05-29T11:28:04.581Z,45
2019-05-29T11:29:04.075Z,40
2019-05-29T11:30:04.955Z,40
2019-05-29T11:31:11.618Z,40
2019-05-29T11:32:05.131Z,40
2019-05-29T11:33:08.947Z,40
2019-05-29T11:34:04.429Z,40
2019-05-29T11:35:05.056Z,40
2019-05-29T11:36:20.808Z,45
2019-05-29T11:37:03.465Z,45
2019-05-29T11:38:05.607Z,45
2019-05-29T11:39:11.241Z,45
2019-05-29T11:40:04.201Z,50
2019-05-29T11:41:33.720Z,40
2019-05-29T11:42:03.125Z,40
2019-05-29T11:43:05.885Z,35
2019-05-29T11:44:04.051Z,35
2019-05-29T11:45:06.368Z,35
2019-05-29T11:46:04.520Z,35
2019-05-29T11:47:05.540Z,40
2019-05-29T11:48:07.943Z,40
2019-05-29T11:49:06.112Z,40
2019-05-29T11:50:21.904Z,45
2019-05-29T11:51:03.493Z,45
2019-05-29T11:52:44.662Z,50
2019-05-29T11:53:03.796Z,50
2019-05-29T11:54:05.035Z,80
2019-05-29T11:55:13.475Z,85
2019-05-29T11:56:07.283Z,65
2019-05-29T11:57:05.934Z,70
2019-05-29T11:58:04.690Z,80
2019-05-29T11:59:03.148Z,65
2019-05-29T12:00:22.792Z,65
2019-05-29T12:01:03.972Z,65
2019-05-29T12:02:08.900Z,65
2019-05-29T12:03:05.106Z,55
2019-05-29T12:04:41.079Z,55
2019-05-29T12:05:07.315Z,55
2019-05-29T12:06:05.916Z,55
2019-05-29T12:07:04.265Z,50
2019-05-29T12:08:05.040Z,50
2019-05-29T12:09:05.033Z,50
2019-05-29T12:10:08.314Z,55
2019-05-29T12:11:02.612Z,50
2019-05-29T12:12:05.539Z,55
2019-05-29T12:13:04.315Z,55
2019-05-29T12:14:05.860Z,65
2019-05-29T12:15:24.036Z,65
2019-05-29T12:16:02.947Z,55
2019-05-29T12:17:05.806Z,55
2019-05-29T12:18:31.671Z,80
2019-05-29T12:19:03.151Z,65
2019-05-29T12:20:26.694Z,70
2019-05-29T12:21:05.587Z,70
2019-05-29T12:22:05.755Z,75
2019-05-29T12:23:34.573Z,75
2019-05-29T12:24:04.845Z,110
2019-05-29T12:25:05.792Z,70
2019-05-29T12:26:30.926Z,100
2019-05-29T12:27:05.420Z,85
2019-05-29T12:28:06.489Z,105
2019-05-29T12:29:17.044Z,105
2019-05-29T12:30:04.007Z,85
2019-05-29T12:31:06.730Z,80
2019-05-29T12:32:13.320Z,95
2019-05-29T12:33:04.268Z,95
2019-05-29T12:34:21.702Z,95
2019-05-29T12:35:08.554Z,80
2019-05-29T12:36:03.943Z,70
2019-05-29T12:37:04.549Z,70
2019-05-29T12:38:04.123Z,80
2019-05-29T12:39:05.305Z,80
2019-05-29T12:40:06.354Z,70
2019-05-29T12:41:04.551Z,65
2019-05-29T12:42:04.439Z,60
2019-05-29T12:43:06.384Z,65
2019-05-29T12:44:04.309Z,50
2019-05-29T12:45:04.738Z,50
2019-05-29T12:46:06.573Z,45
2019-05-29T12:47:04.566Z,55
2019-05-29T12:48:15.542Z,50
2019-05-29T12:49:04.463Z,50
2019-05-29T12:50:05.460Z,40
2019-05-29T12:51:07.039Z,40
2019-05-29T12:52:07.385Z,35
2019-05-29T12:53:04.287Z,35
2019-05-29T12:54:05.131Z,35
2019-05-29T12:55:04.212Z,35
2019-05-29T12:56:05.262Z,35
2019-05-29T12:57:04.625Z,35
2019-05-29T12:58:04.419Z,35
2019-05-29T12:59:05.220Z,40
2019-05-29T13:00:04.273Z,40
2019-05-29T13:01:06.033Z,40
2019-05-29T13:02:05.386Z,40
2019-05-29T13:03:05.652Z,40
2019-05-29T13:04:05.063Z,40
2019-05-29T13:05:26.993Z,50
2019-05-29T13:06:03.032Z,50
2019-05-29T13:07:05.229Z,50
2019-05-29T13:08:05.797Z,40
2019-05-29T13:09:05.239Z,35
2019-05-29T13:10:03.127Z,35
2019-05-29T13:11:03.163Z,35
2019-05-29T13:12:04.768Z,35
2019-05-29T13:13:16.246Z,35
2019-05-29T13:14:03.225Z,30
2019-05-29T13:15:04.200Z,30
2019-05-29T13:16:05.605Z,30
2019-05-29T13:17:05.321Z,30
2019-05-29T13:18:15.422Z,25
2019-05-29T13:19:06.045Z,25
2019-05-29T13:20:25.308Z,25
2019-05-29T13:21:03.727Z,25
2019-05-29T13:22:06.212Z,20
2019-05-29T13:23:09.679Z,20
2019-05-29T13:24:11.559Z,20
2019-05-29T13:25:05.485Z,20
2019-05-29T13:26:04.087Z,20
2019-05-29T13:27:06.411Z,25
2019-05-29T13:28:08.755Z,25
2019-05-29T13:29:04.700Z,25
2019-05-29T13:30:10.976Z,25
2019-05-29T13:31:04.773Z,25
2019-05-29T13:32:10.546Z,25
2019-05-29T13:33:10.988Z,25
2019-05-29T13:34:02.955Z,25
2019-05-29T13:35:04.456Z,25
2019-05-29T13:36:04.449Z,30
2019-05-29T13:37:12.573Z,30
2019-05-29T13:38:03.506Z,35
2019-05-29T13:39:06.323Z,35
2019-05-29T13:40:05.398Z,50
2019-05-29T13:41:04.415Z,45
2019-05-29T13:42:11.445Z,50
2019-05-29T13:43:14.835Z,50
2019-05-29T13:44:04.622Z,50
2019-05-29T13:45:19.385Z,50
2019-05-29T13:46:03.096Z,50
2019-05-29T13:47:05.968Z,45
2019-05-29T13:48:05.395Z,40
2019-05-29T13:49:04.905Z,40
2019-05-29T13:50:12.221Z,35
2019-05-29T13:51:05.070Z,40
2019-05-29T13:52:08.097Z,40
2019-05-29T13:53:04.186Z,40
2019-05-29T13:54:23.905Z,40
2019-05-29T13:55:03.503Z,35
2019-05-29T13:56:05.970Z,35
2019-05-29T13:57:08.583Z,35
2019-05-29T13:58:03.761Z,35
2019-05-29T13:59:05.222Z,35
2019-05-29T14:00:10.459Z,30
2019-05-29T14:01:04.647Z,30
2019-05-29T14:02:10.445Z,30
2019-05-29T14:03:06.977Z,30
2019-05-29T14:04:04.994Z,30
2019-05-29T14:05:23.692Z,25
2019-05-29T14:06:12.210Z,25
2019-05-29T14:07:09.419Z,25
2019-05-29T14:08:04.650Z,25
2019-05-29T14:09:04.871Z,25
2019-05-29T14:10:06.021Z,25
2019-05-29T14:11:07.224Z,20
2019-05-29T14:12:03.162Z,20
2019-05-29T14:13:05.201Z,20
2019-05-29T14:14:04.023Z,20
2019-05-29T14:15:06.293Z,20
2019-05-29T14:16:06.645Z,20
2019-05-29T14:17:04.453Z,20
2019-05-29T14:18:04.692Z,20
2019-05-29T14:19:06.961Z,15
2019-05-29T14:20:03.124Z,15
2019-05-29T14:21:04.993Z,15
2019-05-29T14:22:04.976Z,15
2019-05-29T14:23:02.922Z,15
2019-05-29T14:24:20.649Z,15
2019-05-29T14:25:03.833Z,15
2019-05-29T14:26:04.219Z,15
2019-05-29T14:27:03.039Z,15
2019-05-29T14:28:04.633Z,15
2019-05-29T14:29:05.849Z,15
2019-05-29T14:30:05.513Z,15
2019-05-29T14:31:05.951Z,20
2019-05-29T14:32:04.891Z,20
2019-05-29T14:33:02.388Z,20
2019-05-29T14:34:03.003Z,20